createdAt,value
2017-08-17T00:00:20.741Z,76.10
2017-08-17T00:02:49.097Z,76.60
2017-08-17T00:05:17.473Z,76.50
2017-08-17T00:07:45.973Z,76.80
2017-08-17T00:10:14.341Z,76.70
2017-08-17T00:12:42.693Z,76.70
2017-08-17T00:15:11.253Z,76.80
2017-08-17T00:17:39.603Z,76.80
2017-08-17T00:20:07.986Z,76.90
2017-08-17T00:22:37.097Z,77.30
2017-08-17T00:25:05.454Z,77.30
2017-08-17T00:27:33.833Z,77.30
2017-08-17T00:30:02.192Z,77.50
2017-08-17T00:32:30.550Z,77.40
2017-08-17T00:34:59.130Z,77.70
2017-08-17T00:37:28.479Z,78.00
2017-08-17T00:39:56.926Z,77.90
2017-08-17T00:42:25.308Z,78.20
2017-08-17T00:44:53.670Z,78.30
2017-08-17T00:47:22.044Z,78.40
2017-08-17T00:49:50.412Z,78.30
2017-08-17T00:52:18.774Z,78.50
2017-08-17T00:54:47.416Z,78.50
2017-08-17T00:57:15.780Z,78.90
2017-08-17T00:59:44.166Z,79.10
2017-08-17T01:02:12.568Z,79.10
2017-08-17T01:04:40.935Z,79.40
2017-08-17T01:07:09.011Z,79.60
2017-08-17T01:09:37.387Z,79.80
2017-08-17T01:12:05.747Z,80.10
2017-08-17T01:14:33.757Z,80.80
2017-08-17T01:17:02.546Z,80.20
2017-08-17T01:19:30.924Z,80.20
2017-08-17T01:22:28.742Z,80.50
2017-08-17T01:31:38.947Z,80.80
2017-08-17T01:34:06.958Z,80.70
2017-08-17T01:36:35.396Z,81.00
2017-08-17T01:39:03.228Z,81.00
2017-08-17T01:41:30.890Z,80.90
2017-08-17T01:43:58.910Z,81.00
2017-08-17T01:46:27.694Z,81.10
2017-08-17T01:48:55.401Z,81.10
2017-08-17T01:51:23.418Z,81.30
2017-08-17T01:53:51.082Z,81.30
2017-08-17T01:56:19.739Z,81.30
2017-08-17T01:58:47.415Z,81.20
2017-08-17T02:01:15.078Z,81.10
2017-08-17T02:03:43.434Z,81.10
2017-08-17T02:06:11.881Z,81.10
2017-08-17T02:08:40.230Z,81.20
2017-08-17T02:11:08.587Z,81.10
2017-08-17T02:13:38.239Z,81.90
2017-08-17T02:16:06.717Z,81.30
2017-08-17T02:18:35.087Z,81.20
2017-08-17T02:21:03.442Z,81.30
2017-08-17T02:23:31.846Z,81.30
2017-08-17T02:26:00.217Z,81.50
2017-08-17T02:28:28.595Z,81.40
2017-08-17T02:30:56.951Z,81.80
2017-08-17T02:33:25.412Z,81.60
2017-08-17T02:35:54.549Z,81.70
2017-08-17T02:38:22.919Z,81.40
2017-08-17T02:40:51.396Z,81.40
2017-08-17T02:43:19.977Z,81.40
2017-08-17T02:45:48.351Z,81.70
2017-08-17T02:48:16.729Z,81.40
2017-08-17T02:50:45.153Z,81.60
2017-08-17T02:53:13.737Z,81.60
2017-08-17T02:55:42.096Z,81.40
2017-08-17T02:58:10.539Z,81.60
2017-08-17T03:00:38.890Z,81.50
2017-08-17T03:03:07.291Z,81.70
2017-08-17T03:05:35.638Z,81.60
2017-08-17T03:08:03.997Z,81.70
2017-08-17T03:10:33.127Z,82.00
2017-08-17T03:13:01.489Z,81.90
2017-08-17T03:15:29.883Z,82.00
2017-08-17T03:17:58.259Z,82.40
2017-08-17T03:20:26.614Z,82.40
2017-08-17T03:22:54.975Z,82.80
2017-08-17T03:25:23.388Z,82.90
2017-08-17T03:27:51.730Z,82.80
2017-08-17T03:30:20.095Z,83.00
2017-08-17T03:32:48.455Z,82.80
2017-08-17T03:35:17.072Z,83.20
2017-08-17T03:37:46.381Z,83.20
2017-08-17T03:40:14.869Z,83.20
2017-08-17T03:42:43.234Z,83.70
2017-08-17T03:45:11.713Z,83.60
2017-08-17T03:47:40.083Z,83.50
2017-08-17T03:50:08.442Z,83.80
2017-08-17T03:52:36.797Z,83.90
2017-08-17T03:55:05.188Z,84.20
2017-08-17T03:57:33.550Z,83.90
2017-08-17T04:00:02.081Z,83.90
2017-08-17T04:02:30.448Z,84.00
2017-08-17T04:04:58.807Z,84.20
2017-08-17T04:07:27.164Z,84.20
2017-08-17T04:09:56.218Z,84.30
2017-08-17T04:12:24.584Z,84.20
2017-08-17T04:14:52.951Z,84.10
2017-08-17T04:17:21.329Z,84.70
2017-08-17T04:19:49.763Z,84.40
2017-08-17T04:22:18.135Z,84.70
2017-08-17T04:24:46.495Z,85.00
2017-08-17T04:27:15.613Z,84.70
2017-08-17T04:29:44.737Z,84.60
2017-08-17T04:32:13.094Z,84.60
2017-08-17T04:34:41.492Z,84.40
2017-08-17T04:37:09.871Z,84.30
2017-08-17T04:39:38.223Z,84.20
2017-08-17T04:42:06.576Z,83.60
2017-08-17T04:44:34.929Z,84.10
2017-08-17T04:47:03.290Z,84.20
2017-08-17T04:49:31.701Z,83.90
2017-08-17T04:52:00.270Z,84.00
2017-08-17T04:54:28.623Z,83.80
2017-08-17T04:57:13.672Z,83.70
2017-08-17T04:59:42.046Z,83.70
2017-08-17T05:02:10.064Z,83.40
2017-08-17T05:04:38.422Z,83.10
2017-08-17T05:07:06.783Z,82.60
2017-08-17T05:09:35.138Z,82.20
2017-08-17T05:12:03.616Z,81.80
2017-08-17T05:14:31.992Z,81.40
2017-08-17T05:17:00.575Z,81.40
2017-08-17T05:19:28.919Z,81.10
2017-08-17T05:21:57.295Z,81.00
2017-08-17T05:24:26.623Z,80.70
2017-08-17T05:26:54.997Z,80.70
2017-08-17T05:29:23.350Z,80.50
2017-08-17T05:31:51.719Z,80.00
2017-08-17T05:34:20.227Z,79.90
2017-08-17T05:36:48.602Z,79.60
2017-08-17T05:39:16.979Z,79.50
2017-08-17T05:41:45.334Z,79.50
2017-08-17T05:44:13.789Z,79.10
2017-08-17T05:46:42.208Z,78.90
2017-08-17T05:49:10.571Z,78.70
2017-08-17T05:51:42.204Z,78.50
2017-08-17T05:54:11.344Z,78.30
2017-08-17T05:56:39.706Z,78.20
2017-08-17T05:59:08.292Z,78.00
2017-08-17T06:01:36.663Z,77.70
2017-08-17T06:04:05.139Z,77.70
2017-08-17T06:06:33.514Z,77.40
2017-08-17T06:09:01.866Z,76.40
2017-08-17T06:11:30.221Z,76.80
2017-08-17T06:13:58.849Z,76.80
2017-08-17T06:16:26.879Z,76.50
2017-08-17T06:18:55.922Z,76.30
2017-08-17T06:21:24.434Z,76.30
2017-08-17T06:23:52.785Z,75.80
2017-08-17T06:26:21.151Z,75.50
2017-08-17T06:28:49.528Z,75.00
2017-08-17T06:31:17.878Z,74.70
2017-08-17T06:33:46.345Z,74.40
2017-08-17T06:36:14.706Z,74.00
2017-08-17T06:38:43.221Z,74.00
2017-08-17T06:41:11.579Z,74.20
2017-08-17T06:43:39.951Z,74.10
2017-08-17T06:46:08.347Z,73.90
2017-08-17T06:48:36.714Z,73.90
2017-08-17T06:51:05.818Z,74.00
2017-08-17T06:53:34.162Z,74.20
2017-08-17T06:56:02.568Z,73.80
2017-08-17T06:58:31.047Z,73.70
2017-08-17T07:00:59.425Z,73.80
2017-08-17T07:03:27.816Z,73.70
2017-08-17T07:05:56.323Z,73.30
2017-08-17T07:08:24.975Z,73.60
2017-08-17T07:10:53.347Z,73.30
2017-08-17T07:13:21.812Z,73.50
2017-08-17T07:15:50.194Z,73.30
2017-08-17T07:18:18.555Z,72.70
2017-08-17T07:20:46.950Z,72.50
2017-08-17T07:23:15.319Z,71.80
2017-08-17T07:25:43.699Z,71.60
2017-08-17T07:28:12.045Z,70.90
2017-08-17T07:30:40.431Z,70.60
2017-08-17T07:33:08.788Z,70.50
2017-08-17T07:35:37.914Z,69.80
2017-08-17T07:38:06.279Z,69.70
2017-08-17T07:40:34.866Z,69.40
2017-08-17T07:43:03.242Z,68.50
2017-08-17T07:45:31.586Z,68.40
2017-08-17T07:48:00.916Z,68.00
2017-08-17T07:50:29.347Z,68.00
2017-08-17T07:52:57.916Z,67.70
2017-08-17T07:55:26.261Z,67.00
2017-08-17T07:57:54.737Z,66.40
2017-08-17T08:00:23.756Z,65.60
2017-08-17T08:02:51.770Z,65.40
2017-08-17T08:05:20.132Z,64.90
2017-08-17T08:07:49.259Z,64.90
2017-08-17T08:10:17.614Z,64.70
2017-08-17T08:12:45.968Z,65.00
2017-08-17T08:15:14.347Z,65.00
2017-08-17T08:17:42.962Z,65.30
2017-08-17T08:20:11.307Z,64.60
2017-08-17T08:22:39.714Z,65.20
2017-08-17T08:25:08.066Z,66.40
2017-08-17T08:27:36.437Z,65.80
2017-08-17T08:30:04.810Z,65.70
2017-08-17T08:32:33.161Z,65.20
2017-08-17T08:35:01.530Z,64.00
2017-08-17T08:37:29.885Z,62.90
2017-08-17T08:39:58.247Z,62.70
2017-08-17T08:42:26.822Z,62.40
2017-08-17T08:44:55.199Z,62.60
2017-08-17T08:47:23.576Z,62.30
2017-08-17T08:49:51.927Z,62.40
2017-08-17T08:52:20.709Z,62.40
2017-08-17T08:54:49.824Z,61.50
2017-08-17T08:57:18.169Z,61.50
2017-08-17T08:59:46.576Z,61.00
2017-08-17T09:02:14.929Z,61.00
2017-08-17T09:04:43.328Z,60.80
2017-08-17T09:07:11.679Z,60.90
2017-08-17T09:09:40.714Z,60.70
2017-08-17T09:12:09.276Z,60.50
2017-08-17T09:14:37.625Z,60.70
2017-08-17T09:17:06.951Z,60.40
2017-08-17T09:19:35.327Z,60.30
2017-08-17T09:22:03.683Z,60.20
2017-08-17T09:24:32.039Z,60.30
2017-08-17T09:27:01.374Z,60.30
2017-08-17T09:29:29.712Z,60.20
2017-08-17T09:31:59.047Z,60.10
2017-08-17T09:34:27.390Z,60.00
2017-08-17T09:36:56.522Z,59.90
2017-08-17T09:39:25.009Z,59.90
2017-08-17T09:41:53.472Z,60.20
2017-08-17T09:44:21.847Z,59.90
2017-08-17T09:46:50.205Z,59.80
2017-08-17T09:49:18.562Z,59.80
2017-08-17T09:51:47.700Z,59.30
2017-08-17T09:54:16.048Z,59.20
2017-08-17T09:56:44.402Z,59.20
2017-08-17T09:59:12.787Z,59.40
2017-08-17T10:01:41.146Z,59.10
2017-08-17T10:04:09.775Z,59.50
2017-08-17T10:06:38.115Z,58.80
2017-08-17T10:09:07.237Z,58.20
2017-08-17T10:11:35.611Z,58.10
2017-08-17T10:14:03.959Z,58.00
2017-08-17T10:16:32.375Z,57.60
2017-08-17T10:19:00.724Z,57.70
2017-08-17T10:21:29.084Z,57.90
2017-08-17T10:23:57.453Z,56.80
2017-08-17T10:26:25.803Z,56.90
2017-08-17T10:28:54.167Z,56.60
2017-08-17T10:31:22.677Z,56.50
2017-08-17T10:33:51.206Z,56.40
2017-08-17T10:36:19.550Z,56.80
2017-08-17T10:38:48.880Z,56.10
2017-08-17T10:41:17.239Z,56.00
2017-08-17T10:43:45.647Z,56.40
2017-08-17T10:46:14.001Z,56.00
2017-08-17T10:48:42.439Z,55.10
2017-08-17T10:51:10.802Z,54.20
2017-08-17T10:53:39.176Z,54.30
2017-08-17T10:56:07.539Z,53.40
2017-08-17T10:58:35.895Z,53.20
2017-08-17T11:01:04.471Z,53.40
2017-08-17T11:03:32.842Z,53.80
2017-08-17T11:06:01.196Z,53.80
2017-08-17T11:08:29.545Z,53.10
2017-08-17T11:10:57.910Z,53.40
2017-08-17T11:13:26.270Z,53.70
2017-08-17T11:15:54.646Z,53.80
2017-08-17T11:18:23.004Z,53.50
2017-08-17T11:20:51.614Z,53.70
2017-08-17T11:23:19.973Z,54.00
2017-08-17T11:25:48.350Z,55.20
2017-08-17T11:28:16.719Z,55.10
2017-08-17T11:30:45.096Z,54.00
2017-08-17T11:33:13.477Z,53.30
2017-08-17T11:35:41.834Z,53.10
2017-08-17T11:38:10.312Z,54.80
2017-08-17T11:40:38.660Z,58.30
2017-08-17T11:43:07.558Z,59.10
2017-08-17T11:45:35.899Z,56.60
2017-08-17T11:48:05.018Z,53.00
2017-08-17T11:50:33.191Z,52.30
2017-08-17T11:53:01.554Z,50.60
2017-08-17T11:55:29.757Z,50.70
2017-08-17T11:57:58.107Z,50.70
2017-08-17T12:00:26.458Z,50.40
2017-08-17T12:02:54.825Z,51.10
2017-08-17T12:05:23.188Z,50.90
2017-08-17T12:07:51.542Z,51.70
2017-08-17T12:10:19.909Z,55.40
2017-08-17T12:12:48.283Z,55.80
2017-08-17T12:15:16.642Z,57.10
2017-08-17T12:17:44.994Z,57.20
2017-08-17T12:20:14.115Z,59.80
2017-08-17T12:22:42.464Z,59.80
2017-08-17T12:25:11.022Z,57.90
2017-08-17T12:27:40.075Z,57.10
2017-08-17T12:30:08.598Z,57.30
2017-08-17T12:32:36.948Z,56.60
2017-08-17T12:35:05.115Z,56.70
2017-08-17T12:37:33.483Z,58.60
2017-08-17T12:40:01.954Z,59.50
2017-08-17T12:42:30.311Z,59.40
2017-08-17T12:44:58.681Z,60.90
2017-08-17T12:47:27.039Z,61.30
2017-08-17T12:49:56.175Z,62.40
2017-08-17T12:52:24.513Z,62.30
2017-08-17T12:54:53.131Z,64.50
2017-08-17T12:57:21.559Z,64.20
2017-08-17T12:59:50.498Z,63.80
2017-08-17T13:02:18.973Z,64.60
2017-08-17T13:04:47.350Z,63.70
2017-08-17T13:07:15.726Z,62.70
2017-08-17T13:09:44.087Z,62.40
2017-08-17T13:12:12.475Z,61.80
2017-08-17T13:14:40.857Z,63.50
2017-08-17T13:17:09.206Z,63.60
2017-08-17T13:19:37.557Z,62.70
2017-08-17T13:22:05.948Z,63.10
2017-08-17T13:24:34.355Z,61.60
2017-08-17T13:27:02.703Z,60.90
2017-08-17T13:29:31.749Z,61.30
2017-08-17T13:32:00.308Z,60.30
2017-08-17T13:34:28.989Z,59.90
2017-08-17T13:36:57.338Z,60.00
2017-08-17T13:39:25.703Z,59.30
2017-08-17T13:41:54.835Z,59.20
2017-08-17T13:44:23.198Z,59.10
2017-08-17T13:46:52.503Z,59.20
2017-08-17T13:49:20.926Z,59.40
2017-08-17T13:51:49.300Z,59.30
2017-08-17T13:54:17.662Z,59.30
2017-08-17T13:56:46.032Z,59.10
2017-08-17T13:59:14.389Z,59.50
2017-08-17T14:01:42.751Z,59.40
2017-08-17T14:04:11.110Z,59.60
2017-08-17T14:06:39.571Z,59.50
2017-08-17T14:09:07.932Z,59.40
2017-08-17T14:11:39.128Z,59.30
2017-08-17T14:14:07.472Z,59.20
2017-08-17T14:16:36.619Z,59.10
2017-08-17T14:19:05.176Z,59.10
2017-08-17T14:21:33.622Z,59.10
2017-08-17T14:24:01.984Z,59.20
2017-08-17T14:26:30.325Z,59.50
2017-08-17T14:28:58.998Z,59.30
2017-08-17T14:31:27.341Z,59.50
2017-08-17T14:33:55.739Z,60.00
2017-08-17T14:36:24.099Z,60.30
2017-08-17T14:38:52.489Z,60.40
2017-08-17T14:41:20.829Z,60.30
2017-08-17T14:43:50.162Z,59.40
2017-08-17T14:46:18.601Z,59.40
2017-08-17T14:48:46.966Z,58.80
2017-08-17T14:51:15.398Z,58.90
2017-08-17T14:53:43.773Z,58.70
2017-08-17T14:56:12.139Z,58.30
2017-08-17T14:58:40.505Z,58.30
2017-08-17T15:01:08.867Z,58.60
2017-08-17T15:03:37.996Z,60.00
2017-08-17T15:06:06.344Z,60.00
2017-08-17T15:08:34.618Z,60.80
2017-08-17T15:11:03.729Z,61.70
2017-08-17T15:13:32.081Z,61.70
2017-08-17T15:16:00.433Z,61.90
2017-08-17T15:18:28.811Z,62.70
2017-08-17T15:20:57.178Z,62.80
2017-08-17T15:23:25.818Z,62.90
2017-08-17T15:25:54.247Z,63.30
2017-08-17T15:28:22.635Z,63.70
2017-08-17T15:30:50.989Z,63.90
2017-08-17T15:33:19.356Z,64.50
2017-08-17T15:35:47.706Z,64.70
2017-08-17T15:38:16.138Z,64.90
2017-08-17T15:40:44.493Z,65.00
2017-08-17T15:43:12.846Z,65.50
2017-08-17T15:45:41.422Z,66.00
2017-08-17T15:48:09.776Z,66.50
2017-08-17T15:50:38.258Z,66.00
2017-08-17T15:53:06.899Z,65.90
2017-08-17T15:55:35.941Z,66.30
2017-08-17T15:58:04.500Z,66.70
2017-08-17T16:00:32.858Z,67.00
2017-08-17T16:03:01.207Z,66.50
2017-08-17T16:05:29.596Z,66.60
2017-08-17T16:07:58.010Z,66.50
2017-08-17T16:10:26.349Z,66.50
2017-08-17T16:12:54.727Z,66.60
2017-08-17T16:15:23.114Z,66.60
2017-08-17T16:17:51.474Z,66.90
2017-08-17T16:20:19.843Z,68.10
2017-08-17T16:22:48.374Z,69.00
2017-08-17T16:25:16.819Z,70.10
2017-08-17T16:27:45.428Z,70.80
2017-08-17T16:30:13.798Z,70.80
2017-08-17T16:32:42.161Z,72.10
2017-08-17T16:35:10.556Z,71.40
2017-08-17T16:37:38.900Z,69.90
2017-08-17T16:40:08.188Z,69.00
2017-08-17T16:42:36.607Z,68.80
2017-08-17T16:45:05.084Z,68.30
2017-08-17T16:47:33.457Z,68.00
2017-08-17T16:50:01.833Z,67.90
2017-08-17T16:52:30.863Z,68.10
2017-08-17T16:54:59.222Z,68.30
2017-08-17T16:57:27.590Z,68.20
2017-08-17T16:59:55.979Z,67.90
2017-08-17T17:02:26.190Z,67.80
2017-08-17T17:04:54.566Z,67.60
2017-08-17T17:07:22.910Z,68.10
2017-08-17T17:09:51.297Z,68.20
2017-08-17T17:12:19.878Z,68.20
2017-08-17T17:14:48.232Z,68.20
2017-08-17T17:17:17.354Z,68.00
2017-08-17T17:19:45.927Z,68.00
2017-08-17T17:22:14.955Z,68.20
2017-08-17T17:24:43.315Z,68.30
2017-08-17T17:27:11.670Z,68.40
2017-08-17T17:29:40.111Z,68.60
2017-08-17T17:32:09.237Z,68.30
2017-08-17T17:34:37.591Z,68.30
2017-08-17T17:37:05.957Z,68.30
2017-08-17T17:39:34.330Z,68.30
2017-08-17T17:42:02.732Z,68.20
2017-08-17T17:44:31.120Z,68.60
2017-08-17T17:46:59.475Z,69.20
2017-08-17T17:49:27.827Z,69.40
2017-08-17T17:51:56.192Z,68.60
2017-08-17T17:54:24.550Z,68.70
2017-08-17T17:56:52.928Z,68.60
2017-08-17T17:59:21.287Z,68.70
2017-08-17T18:01:49.640Z,68.90
2017-08-17T18:04:18.229Z,69.00
2017-08-17T18:06:46.751Z,69.20
2017-08-17T18:09:15.295Z,69.90
2017-08-17T18:11:43.661Z,71.20
2017-08-17T18:14:12.344Z,72.90
2017-08-17T18:16:40.721Z,71.70
2017-08-17T18:19:09.066Z,71.80
2017-08-17T18:21:38.230Z,71.30
2017-08-17T18:24:06.619Z,71.20
2017-08-17T18:26:34.977Z,72.10
2017-08-17T18:29:03.830Z,74.40
2017-08-17T18:31:32.192Z,75.60
2017-08-17T18:34:00.804Z,77.30
2017-08-17T18:36:29.262Z,78.20
2017-08-17T18:38:57.637Z,78.60
2017-08-17T18:41:26.004Z,79.80
2017-08-17T18:43:54.391Z,80.20
2017-08-17T18:46:22.748Z,81.80
2017-08-17T18:48:51.244Z,82.30
2017-08-17T18:51:19.599Z,81.00
2017-08-17T18:53:47.967Z,82.70
2017-08-17T18:56:16.329Z,81.90
2017-08-17T18:58:44.953Z,82.10
2017-08-17T19:01:13.314Z,82.50
2017-08-17T19:03:41.782Z,82.60
2017-08-17T19:06:10.237Z,82.90
2017-08-17T19:08:38.595Z,82.80
2017-08-17T19:11:07.752Z,83.60
2017-08-17T19:13:36.114Z,82.90
2017-08-17T19:16:04.481Z,82.30
2017-08-17T19:18:32.843Z,83.10
2017-08-17T19:21:01.954Z,82.70
2017-08-17T19:23:30.347Z,82.70
2017-08-17T19:25:58.723Z,83.00
2017-08-17T19:28:27.068Z,82.10
2017-08-17T19:30:55.426Z,82.40
2017-08-17T19:33:23.798Z,82.30
2017-08-17T19:35:52.179Z,82.10
2017-08-17T19:38:20.535Z,81.90
2017-08-17T19:40:48.895Z,81.40
2017-08-17T19:43:17.401Z,80.00
2017-08-17T19:45:45.935Z,80.90
2017-08-17T19:48:14.310Z,80.60
2017-08-17T19:50:42.995Z,80.60
2017-08-17T19:53:11.470Z,81.00
2017-08-17T19:55:39.901Z,80.50
2017-08-17T19:58:08.273Z,80.50
